메인 페이지
METAR-TAF:

METAR-TAF

공항 :

New Iberia, 루이지애나, 미국

위도: 30-01-44N, 경도: 091-53-04W, 고도: 7m

현재 날씨관측

예보는 17분 전, 00:53시(UTC)에 발표되었습니다.
동남동4kt
온도 27°C
습도 84%
기압 1015 hPa
시정: 16.1km
맑음

METAR: KARA 210053Z 11004KT 10SM CLR 27/24 A2997 RMK AO2 SLP148 T02720239

시각: 20:10 (01:10 UTC)

예보

예보는 1 시간 50분 전, 23:20시(UTC)에 발표되었습니다.
예보 대상 시간: 21일 00시부터 21일 24시까지 (UTC)
남동6kt
시정: 10km
고도 3500ft 상공 구름 보통
21일 0100시부터 (UTC)
남남동4kt
시정: 10km
고도 5000ft 상공 구름 보통
21일 1500시부터 (UTC)
남동8kt
시정: 10km
고도 3500ft 상공 구름 보통, 적란운.
시계 내 뇌우

TAF: KARA 202320Z 2100/2124 13006KT P6SM SCT035 FM210100 15004KT P6SM SCT050 FM211500 13008KT P6SM VCTS SCT035CB

4,000개 이상의 공항 관측 자료 및 예보 (METAR 및 TAF 보고).

지도상에서 검색 가능한 기상관측소가 노란 점과 빨간 점으로 표시되어 있습니다.

기상관측소 명을 보려면 표시 위로 마우스를 이동하세요.

날씨 관측과 예보를 보려면 클릭하세요.

지도 변경 : 확대하려면 엑스 표시가 있는 녹색 버튼, 축소하려면 빼기 표시가 있는 녹색 버튼, 다음 페이지의 지도를 보려면 녹색 화살표를 클릭하세요.


METAR-TAF: